createdAt,value
2018-12-18T00:04:07.227Z,7.07
2018-12-18T00:09:35.502Z,5.70
2018-12-18T00:15:04.216Z,5.40
2018-12-18T00:20:32.575Z,5.47
2018-12-18T00:26:00.833Z,4.50
2018-12-18T00:31:29.025Z,4.60
2018-12-18T00:36:58.329Z,4.97
2018-12-18T00:42:26.587Z,4.60
2018-12-18T00:47:54.851Z,4.80
2018-12-18T00:53:23.091Z,5.53
2018-12-18T00:58:51.397Z,5.10
2018-12-18T01:04:19.680Z,4.27
2018-12-18T01:09:47.909Z,4.33
2018-12-18T01:15:16.950Z,5.37
2018-12-18T01:20:45.198Z,3.97
2018-12-18T01:26:13.463Z,4.20
2018-12-18T01:31:41.763Z,4.30
2018-12-18T01:37:10.060Z,4.33
2018-12-18T01:42:38.241Z,4.37
2018-12-18T01:48:06.463Z,4.20
2018-12-18T01:53:34.632Z,4.73
2018-12-18T01:59:02.861Z,4.13
2018-12-18T02:04:31.150Z,5.13
2018-12-18T02:09:59.196Z,4.37
2018-12-18T02:15:27.267Z,5.07
2018-12-18T02:20:55.359Z,5.33
2018-12-18T02:26:23.424Z,3.97
2018-12-18T02:31:51.504Z,4.62
2018-12-18T02:37:19.569Z,4.72
2018-12-18T02:42:47.737Z,4.90
2018-12-18T02:48:16.502Z,4.03
2018-12-18T02:53:44.773Z,4.80
2018-12-18T02:59:12.861Z,5.27
2018-12-18T03:04:41.074Z,5.20
2018-12-18T03:10:09.322Z,5.73
2018-12-18T03:15:37.390Z,5.40
2018-12-18T03:21:05.454Z,5.83
2018-12-18T03:26:33.523Z,6.90
2018-12-18T03:32:03.567Z,5.78
2018-12-18T03:37:31.687Z,5.37
2018-12-18T03:43:00.552Z,6.20
2018-12-18T03:48:28.612Z,5.50
2018-12-18T03:53:56.702Z,5.30
2018-12-18T03:59:24.884Z,5.57
2018-12-18T04:04:53.044Z,5.23
2018-12-18T04:10:21.106Z,5.63
2018-12-18T04:15:49.191Z,4.13
2018-12-18T04:21:18.214Z,4.58
2018-12-18T04:26:46.375Z,4.73
2018-12-18T04:32:14.439Z,4.95
2018-12-18T04:37:42.678Z,4.20
2018-12-18T04:43:10.739Z,4.47
2018-12-18T04:48:38.805Z,5.27
2018-12-18T04:54:06.983Z,4.70
2018-12-18T04:59:35.054Z,3.80
2018-12-18T05:05:03.732Z,4.50
2018-12-18T05:10:31.799Z,3.45
2018-12-18T05:15:59.863Z,3.90
2018-12-18T05:21:27.977Z,3.00
2018-12-18T05:26:56.222Z,3.60
2018-12-18T05:32:24.484Z,3.70
2018-12-18T05:37:52.574Z,3.67
2018-12-18T05:43:20.629Z,3.73
2018-12-18T05:48:48.689Z,3.67
2018-12-18T05:54:16.798Z,3.57
2018-12-18T05:59:44.876Z,2.97
2018-12-18T06:05:12.951Z,4.43
2018-12-18T06:10:41.033Z,3.67
2018-12-18T06:16:09.100Z,3.00
2018-12-18T06:21:37.163Z,3.67
2018-12-18T06:27:05.317Z,3.70
2018-12-18T06:32:33.375Z,4.03
2018-12-18T06:38:01.497Z,3.80
2018-12-18T06:43:29.558Z,3.58
2018-12-18T06:48:57.641Z,3.30
2018-12-18T06:54:25.761Z,3.33
2018-12-18T06:59:53.836Z,3.63
2018-12-18T07:05:21.959Z,4.57
2018-12-18T07:10:50.026Z,5.40
2018-12-18T07:16:18.131Z,5.03
2018-12-18T07:21:46.210Z,5.57
2018-12-18T07:27:14.285Z,5.20
2018-12-18T07:32:42.354Z,4.07
2018-12-18T07:38:10.429Z,3.98
2018-12-18T07:43:38.482Z,4.37
2018-12-18T07:49:06.561Z,5.03
2018-12-18T07:54:34.647Z,3.80
2018-12-18T08:00:03.099Z,3.20
2018-12-18T08:05:31.352Z,2.77
2018-12-18T08:10:59.606Z,2.97
2018-12-18T08:16:27.850Z,3.60
2018-12-18T08:21:56.108Z,3.13
2018-12-18T08:27:24.352Z,3.30
2018-12-18T08:32:52.420Z,2.70
2018-12-18T08:38:20.474Z,3.50
2018-12-18T08:43:48.801Z,2.93
2018-12-18T08:49:17.029Z,2.87
2018-12-18T08:54:45.226Z,3.00
2018-12-18T09:00:13.355Z,4.30
2018-12-18T09:05:43.352Z,2.97
2018-12-18T09:11:11.489Z,2.90
2018-12-18T09:16:45.258Z,2.45
2018-12-18T09:22:13.329Z,2.43
2018-12-18T09:27:41.393Z,1.60
2018-12-18T09:33:09.748Z,2.00
2018-12-18T09:38:43.578Z,2.10
2018-12-18T09:44:17.262Z,1.70
2018-12-18T09:49:45.317Z,1.73
2018-12-18T09:55:13.396Z,2.08
2018-12-18T10:00:41.522Z,2.00
2018-12-18T10:06:09.617Z,1.67
2018-12-18T10:11:37.678Z,1.83
2018-12-18T10:17:05.729Z,2.60
2018-12-18T10:22:33.786Z,1.70
2018-12-18T10:28:01.878Z,2.10
2018-12-18T10:33:29.938Z,2.10
2018-12-18T10:38:57.990Z,2.80
2018-12-18T10:44:26.062Z,2.23
2018-12-18T10:49:54.126Z,2.98
2018-12-18T10:55:22.188Z,3.07
2018-12-18T11:00:55.894Z,3.07
2018-12-18T11:06:23.965Z,3.50
2018-12-18T11:11:52.039Z,3.50
2018-12-18T11:17:20.101Z,3.70
2018-12-18T11:22:48.257Z,4.23
2018-12-18T11:28:16.322Z,3.77
2018-12-18T11:33:44.507Z,4.37
2018-12-18T11:39:12.585Z,3.90
2018-12-18T11:44:41.428Z,4.00
2018-12-18T11:50:09.719Z,3.97
2018-12-18T11:55:37.861Z,4.70
2018-12-18T12:01:05.927Z,4.63
2018-12-18T12:06:33.981Z,5.20
2018-12-18T12:12:02.045Z,5.00
2018-12-18T12:17:30.120Z,5.70
2018-12-18T12:22:58.185Z,5.30
2018-12-18T12:28:26.246Z,5.30
2018-12-18T12:33:54.322Z,4.60
2018-12-18T12:39:22.394Z,5.20
2018-12-18T12:44:50.457Z,5.07
2018-12-18T12:50:18.695Z,4.50
2018-12-18T12:55:46.818Z,4.20
2018-12-18T13:01:14.890Z,3.50
2018-12-18T13:06:43.056Z,5.17
2018-12-18T13:12:11.125Z,4.10
2018-12-18T13:17:39.208Z,11.10
2018-12-18T13:23:07.265Z,8.65
2018-12-18T13:28:35.332Z,7.87
2018-12-18T13:34:03.405Z,5.25
2018-12-18T13:39:31.473Z,4.50
2018-12-18T13:44:59.535Z,5.67
2018-12-18T13:50:27.605Z,5.10
2018-12-18T13:55:55.842Z,5.30
2018-12-18T14:01:24.027Z,6.23
2018-12-18T14:06:52.278Z,4.60
2018-12-18T14:12:20.502Z,4.47
2018-12-18T14:17:48.672Z,4.53
2018-12-18T14:23:16.918Z,4.40
2018-12-18T14:28:45.134Z,4.87
2018-12-18T14:34:13.327Z,4.57
2018-12-18T14:39:41.567Z,5.13
2018-12-18T14:45:09.808Z,4.80
2018-12-18T14:50:38.040Z,5.83
2018-12-18T14:56:06.280Z,5.40
2018-12-18T15:01:34.401Z,6.90
2018-12-18T15:07:03.044Z,6.57
2018-12-18T15:12:31.937Z,6.63
2018-12-18T15:18:00.015Z,6.07
2018-12-18T15:23:28.118Z,7.03
2018-12-18T15:28:56.180Z,8.20
2018-12-18T15:34:24.249Z,7.30
2018-12-18T15:39:52.359Z,6.63
2018-12-18T15:45:21.390Z,6.13
2018-12-18T15:50:49.471Z,6.47
2018-12-18T15:56:17.543Z,6.43
2018-12-18T16:01:45.596Z,7.33
2018-12-18T16:07:16.207Z,7.33
2018-12-18T16:12:44.581Z,7.20
2018-12-18T16:18:12.652Z,6.37
2018-12-18T16:23:40.715Z,6.43
2018-12-18T16:29:08.811Z,6.90
2018-12-18T16:34:36.888Z,6.47
2018-12-18T16:40:05.162Z,5.73
2018-12-18T16:45:33.238Z,5.90
2018-12-18T16:51:01.285Z,5.10
2018-12-18T16:56:29.409Z,6.07
2018-12-18T17:01:57.647Z,6.60
2018-12-18T17:07:29.744Z,6.17
2018-12-18T17:12:57.065Z,6.70
2018-12-18T17:18:25.271Z,10.13
2018-12-18T17:23:53.338Z,13.00
2018-12-18T17:29:21.433Z,12.10
2018-12-18T17:34:49.506Z,12.83
2018-12-18T17:40:17.566Z,12.80
2018-12-18T17:45:45.655Z,13.50
2018-12-18T17:51:13.739Z,15.67
2018-12-18T17:56:41.821Z,15.77
2018-12-18T18:02:09.916Z,16.80
2018-12-18T18:07:42.870Z,16.95
2018-12-18T18:13:08.059Z,16.13
2018-12-18T18:18:36.123Z,16.25
2018-12-18T18:24:05.146Z,16.23
2018-12-18T18:29:33.249Z,14.87
2018-12-18T18:35:01.313Z,14.83
2018-12-18T18:40:29.382Z,17.50
2018-12-18T18:45:59.355Z,17.00
2018-12-18T18:51:27.505Z,15.70
2018-12-18T18:56:57.656Z,15.70
2018-12-18T19:02:25.755Z,17.03
2018-12-18T19:07:56.541Z,16.00
2018-12-18T19:13:23.965Z,16.03
2018-12-18T19:18:52.059Z,16.77
2018-12-18T19:24:20.139Z,13.83
2018-12-18T19:29:48.220Z,16.32
2018-12-18T19:35:16.282Z,15.83
2018-12-18T19:40:44.362Z,14.73
2018-12-18T19:46:12.442Z,14.73
2018-12-18T19:51:40.553Z,14.77
2018-12-18T19:57:08.647Z,16.12
2018-12-18T20:02:37.637Z,15.40
2018-12-18T20:08:10.037Z,14.70
2018-12-18T20:13:35.813Z,12.83
2018-12-18T20:19:04.235Z,14.73
2018-12-18T20:24:32.405Z,12.40
2018-12-18T20:30:00.709Z,13.87
2018-12-18T20:35:28.775Z,13.23
2018-12-18T20:40:56.843Z,14.50
2018-12-18T20:46:25.046Z,12.73
2018-12-18T20:51:53.122Z,13.97
2018-12-18T20:57:21.261Z,13.30
2018-12-18T21:02:49.328Z,14.50
2018-12-18T21:08:23.179Z,13.80
2018-12-18T21:13:47.529Z,15.20
2018-12-18T21:19:15.620Z,15.97
2018-12-18T21:24:43.704Z,14.07
2018-12-18T21:30:12.089Z,13.73
2018-12-18T21:35:40.162Z,13.57
2018-12-18T21:41:08.242Z,15.77
2018-12-18T21:46:36.315Z,15.47
2018-12-18T21:52:04.403Z,15.50
2018-12-18T21:57:33.343Z,14.03
2018-12-18T22:03:01.502Z,15.17
2018-12-18T22:08:36.705Z,14.70
2018-12-18T22:14:00.346Z,12.03
2018-12-18T22:19:28.423Z,13.60
2018-12-18T22:24:56.495Z,13.73
2018-12-18T22:30:24.763Z,13.97
2018-12-18T22:35:52.842Z,15.80
2018-12-18T22:41:20.901Z,15.83
2018-12-18T22:46:48.972Z,15.77
2018-12-18T22:52:17.049Z,15.07
2018-12-18T22:57:45.117Z,17.20
2018-12-18T23:03:13.237Z,16.50
2018-12-18T23:08:41.374Z,15.80
2018-12-18T23:14:09.493Z,15.80
2018-12-18T23:19:38.558Z,17.27
2018-12-18T23:25:06.740Z,15.20
2018-12-18T23:30:34.847Z,16.87
2018-12-18T23:36:02.969Z,16.57
2018-12-18T23:41:31.238Z,17.20
2018-12-18T23:46:59.494Z,16.87
2018-12-18T23:52:27.706Z,17.20
2018-12-18T23:57:55.919Z,16.80
